Time;durP1;ratioP1;P1;durP2;ratioP2;P2;SDS_P1;SDS_P2;PMS_P1;PMS_P2;Temp;Humidity;BMP_temperature;BMP_pressure;BME280_temperature;BME280_humidity;BME280_pressure;Samples;Min_cycle;Max_cycle;Signal;HPM_P1;HPM_P2
2023/12/09 00:00:13;;;;;;;1.80;1.70;;;;;;;3.71;nan;-23919.97;5034556;28;20254;-65
2023/12/09 00:02:39;;;;;;;1.50;1.40;;;;;;;3.78;nan;-23921.81;5034955;28;20198;-65
2023/12/09 00:05:05;;;;;;;3.30;3.10;;;;;;;3.77;nan;-23921.69;5034854;28;20163;-65
2023/12/09 00:07:31;;;;;;;2.13;2.03;;;;;;;3.76;nan;-23921.25;5034489;28;20218;-65
2023/12/09 00:09:56;;;;;;;2.73;2.37;;;;;;;3.74;nan;-23920.81;5034702;28;20230;-64
2023/12/09 00:12:21;;;;;;;3.57;1.80;;;;;;;3.74;nan;-23920.81;5034438;28;20642;-65
2023/12/09 00:14:47;;;;;;;1.60;1.50;;;;;;;3.47;nan;-23913.25;5034195;28;20234;-66
2023/12/09 00:17:12;;;;;;;2.90;2.43;;;;;;;3.39;nan;-23910.97;5034669;28;20171;-68
2023/12/09 00:19:38;;;;;;;1.93;1.83;;;;;;;3.27;nan;-23907.41;5034504;28;20253;-66
2023/12/09 00:22:03;;;;;;;1.60;1.50;;;;;;;3.34;nan;-23909.56;5034418;28;20516;-65
2023/12/09 00:24:29;;;;;;;2.67;2.23;;;;;;;3.37;nan;-23910.28;5033865;28;20182;-64
2023/12/09 00:26:54;;;;;;;2.33;2.13;;;;;;;3.64;nan;-23917.81;5034210;28;20258;-66
2023/12/09 00:29:20;;;;;;;2.40;2.20;;;;;;;3.53;nan;-23914.84;5033813;28;20267;-67
2023/12/09 00:31:45;;;;;;;1.50;1.40;;;;;;;3.78;nan;-23921.81;5034300;28;20167;-66
2023/12/09 00:34:11;;;;;;;2.00;1.53;;;;;;;3.61;nan;-23917.13;5033314;28;20694;-65
2023/12/09 00:36:36;;;;;;;1.60;1.53;;;;;;;3.81;nan;-23922.66;5034802;28;20266;-66
2023/12/09 00:39:01;;;;;;;1.77;1.67;;;;;;;3.78;nan;-23921.97;5033955;28;20175;-66
2023/12/09 00:41:27;;;;;;;2.20;2.00;;;;;;;3.59;nan;-23916.41;5034297;28;20198;-64
2023/12/09 00:43:52;;;;;;;1.60;1.50;;;;;;;3.52;nan;-23914.69;5033823;28;20182;-65
2023/12/09 00:46:20;;;;;;;3.47;1.83;;;;;;;3.65;nan;-23918.13;5033918;28;20287;-66
2023/12/09 00:48:45;;;;;;;1.13;1.13;;;;;;;3.56;nan;-23915.81;5033736;28;20262;-66
2023/12/09 00:51:11;;;;;;;1.97;1.87;;;;;;;3.64;nan;-23917.81;5033857;28;20259;-66
2023/12/09 00:53:36;;;;;;;2.07;1.93;;;;;;;3.46;nan;-23912.84;5033690;28;20226;-63
2023/12/09 00:56:01;;;;;;;2.27;2.10;;;;;;;3.50;nan;-23913.97;5033650;28;20183;-65
2023/12/09 00:58:27;;;;;;;1.60;1.50;;;;;;;3.59;nan;-23916.53;5033659;28;20182;-65
2023/12/09 01:00:52;;;;;;;2.23;1.77;;;;;;;3.44;nan;-23912.41;5033554;28;20610;-64
2023/12/09 01:03:18;;;;;;;3.50;1.47;;;;;;;3.57;nan;-23915.97;5033452;28;20171;-65
2023/12/09 01:05:43;;;;;;;2.60;1.83;;;;;;;3.47;nan;-23913.13;5033536;28;20180;-65
2023/12/09 01:08:09;;;;;;;3.53;2.27;;;;;;;3.60;nan;-23916.69;5033198;28;20276;-65
2023/12/09 01:10:34;;;;;;;2.57;2.03;;;;;;;3.42;nan;-23911.69;5033254;28;20183;-65
2023/12/09 01:12:59;;;;;;;1.47;1.37;;;;;;;3.34;nan;-23909.41;5031669;28;20698;-65
2023/12/09 01:15:25;;;;;;;1.87;1.77;;;;;;;3.35;nan;-23909.84;5033243;28;20203;-65
2023/12/09 01:17:50;;;;;;;1.77;1.67;;;;;;;3.39;nan;-23910.97;5033391;28;20171;-64
2023/12/09 01:20:15;;;;;;;2.60;1.93;;;;;;;3.45;nan;-23912.69;5033224;28;20692;-64
2023/12/09 01:22:41;;;;;;;2.67;2.47;;;;;;;3.65;nan;-23918.25;5032843;28;20186;-65
2023/12/09 01:25:07;;;;;;;1.80;1.70;;;;;;;3.73;nan;-23920.53;5033009;28;20642;-65
2023/12/09 01:27:32;;;;;;;4.83;2.33;;;;;;;3.73;nan;-23920.53;5032857;28;20174;-65
2023/12/09 01:29:57;;;;;;;1.70;1.60;;;;;;;3.73;nan;-23920.38;5032943;28;20276;-65
2023/12/09 01:32:23;;;;;;;2.67;1.90;;;;;;;3.54;nan;-23915.25;5032992;28;20176;-65
2023/12/09 01:34:48;;;;;;;1.70;1.60;;;;;;;3.44;nan;-23912.25;5032555;28;20666;-65
2023/12/09 01:37:13;;;;;;;7.20;3.33;;;;;;;3.52;nan;-23914.69;5032904;28;20179;-64
2023/12/09 01:39:40;;;;;;;1.63;1.53;;;;;;;3.60;nan;-23916.69;5031307;28;20180;-64
2023/12/09 01:42:05;;;;;;;1.77;1.67;;;;;;;3.81;nan;-23922.66;5032802;28;20258;-66
2023/12/09 01:44:30;;;;;;;2.27;2.07;;;;;;;3.83;nan;-23923.25;5031807;28;20205;-66
2023/12/09 01:46:56;;;;;;;1.73;1.63;;;;;;;3.82;nan;-23922.97;5032819;28;20202;-65
2023/12/09 01:49:21;;;;;;;2.33;2.13;;;;;;;3.80;nan;-23922.38;5032694;28;20176;-65
2023/12/09 01:51:47;;;;;;;3.47;2.67;;;;;;;3.59;nan;-23916.41;5033131;28;20250;-64
2023/12/09 01:54:13;;;;;;;1.90;1.80;;;;;;;3.71;nan;-23919.81;5032249;28;20245;-64
2023/12/09 01:56:39;;;;;;;2.53;2.33;;;;;;;3.70;nan;-23919.53;5032632;28;20233;-64
2023/12/09 01:59:04;;;;;;;1.70;1.60;;;;;;;3.64;nan;-23917.97;5032317;28;20176;-65
2023/12/09 02:01:33;;;;;;;1.37;1.30;;;;;;;3.63;nan;-23917.53;5032388;28;20179;-65
2023/12/09 02:03:58;;;;;;;1.60;1.50;;;;;;;3.35;nan;-23909.69;5032614;28;20167;-65
2023/12/09 02:06:24;;;;;;;1.90;1.70;;;;;;;3.48;nan;-23913.41;5032135;28;20167;-65
2023/12/09 02:08:50;;;;;;;2.20;2.00;;;;;;;3.28;nan;-23907.84;5032267;28;20274;-64
2023/12/09 02:11:49;;;;;;;1.87;1.73;;;;;;;3.40;nan;-23911.28;5032250;28;20211;-64
2023/12/09 02:14:26;;;;;;;1.70;1.60;;;;;;;3.32;nan;-23909.00;5032399;28;20677;-64
2023/12/09 02:16:51;;;;;;;1.40;1.33;;;;;;;3.25;nan;-23907.00;5032378;28;20167;-64
2023/12/09 02:19:17;;;;;;;1.53;1.43;;;;;;;3.04;nan;-23901.16;5032214;28;20167;-67
2023/12/09 02:22:10;;;;;;;1.50;1.40;;;;;;;3.14;nan;-23903.72;5032246;28;20183;-65
2023/12/09 02:24:36;;;;;;;1.37;1.33;;;;;;;2.82;nan;-23894.72;5031860;28;20270;-64
2023/12/09 02:27:12;;;;;;;1.53;1.43;;;;;;;2.92;nan;-23897.72;5032011;28;20266;-65
2023/12/09 02:29:59;;;;;;;1.50;1.40;;;;;;;2.62;nan;-23889.31;5031755;28;20223;-64
2023/12/09 02:32:30;;;;;;;2.70;1.63;;;;;;;2.72;nan;-23891.88;5031720;28;20194;-66
2023/12/09 02:34:57;;;;;;;1.60;1.50;;;;;;;2.48;nan;-23885.31;5031963;28;20207;-65
2023/12/09 02:37:24;;;;;;;1.60;1.50;;;;;;;2.57;nan;-23887.88;5031704;28;20183;-65
2023/12/09 02:39:50;;;;;;;3.40;2.03;;;;;;;2.28;nan;-23879.59;5031882;28;20560;-64
2023/12/09 02:42:17;;;;;;;1.30;1.30;;;;;;;2.39;nan;-23882.75;5031780;28;20175;-64
2023/12/09 02:44:43;;;;;;;1.73;1.50;;;;;;;2.38;nan;-23882.44;5030230;28;20179;-65
2023/12/09 02:47:13;;;;;;;1.80;1.70;;;;;;;2.24;nan;-23878.47;5030747;28;20262;-65
2023/12/09 02:49:38;;;;;;;2.30;2.20;;;;;;;2.03;nan;-23872.47;5031641;28;20194;-64
2023/12/09 02:52:04;;;;;;;1.30;1.30;;;;;;;2.21;nan;-23877.75;5031494;28;20713;-64
2023/12/09 02:54:29;;;;;;;1.80;1.70;;;;;;;2.16;nan;-23876.31;5031462;28;20579;-64
2023/12/09 02:56:54;;;;;;;1.90;1.80;;;;;;;1.97;nan;-23870.88;5032030;28;20183;-66
2023/12/09 02:59:20;;;;;;;0.97;0.97;;;;;;;2.21;nan;-23877.59;5031022;28;20618;-66
2023/12/09 03:01:45;;;;;;;1.70;1.60;;;;;;;2.25;nan;-23878.75;5031480;28;20190;-65
2023/12/09 03:04:11;;;;;;;1.67;1.57;;;;;;;2.02;nan;-23872.31;5031965;28;20172;-65
2023/12/09 03:06:36;;;;;;;1.97;1.47;;;;;;;2.24;nan;-23878.47;5031331;28;20181;-65
2023/12/09 03:09:02;;;;;;;1.70;1.60;;;;;;;2.19;nan;-23877.16;5031140;28;20175;-65
2023/12/09 03:11:27;;;;;;;1.90;1.80;;;;;;;2.09;nan;-23874.16;5031592;28;20180;-64
2023/12/09 03:13:52;;;;;;;2.00;1.63;;;;;;;1.89;nan;-23868.59;5031005;28;20301;-64
2023/12/09 03:16:18;;;;;;;1.60;1.50;;;;;;;2.01;nan;-23872.03;5031192;28;20666;-65
2023/12/09 03:18:43;;;;;;;1.70;1.60;;;;;;;1.97;nan;-23870.75;5031724;28;20160;-66
2023/12/09 03:21:14;;;;;;;2.13;2.03;;;;;;;1.91;nan;-23869.03;5031304;28;20279;-66
2023/12/09 03:23:44;;;;;;;1.70;1.60;;;;;;;1.90;nan;-23868.75;5031402;28;20164;-65
2023/12/09 03:26:14;;;;;;;1.77;1.67;;;;;;;1.91;nan;-23869.03;5031204;28;20167;-63
2023/12/09 03:28:40;;;;;;;1.60;1.50;;;;;;;1.85;nan;-23867.31;5030827;28;20179;-65
2023/12/09 03:31:06;;;;;;;1.20;1.20;;;;;;;1.60;nan;-23860.31;5031532;28;20223;-65
2023/12/09 03:33:31;;;;;;;1.70;1.60;;;;;;;1.71;nan;-23863.59;5030849;28;20207;-66
2023/12/09 03:35:56;;;;;;;1.53;1.50;;;;;;;1.55;nan;-23858.88;5031335;28;20178;-64
2023/12/09 03:38:22;;;;;;;1.90;1.80;;;;;;;1.40;nan;-23854.75;5030815;28;20201;-64
2023/12/09 03:40:47;;;;;;;2.50;2.00;;;;;;;1.51;nan;-23857.88;5030892;28;20175;-64
2023/12/09 03:43:12;;;;;;;1.27;1.27;;;;;;;1.38;nan;-23854.03;5030567;28;20654;-64
2023/12/09 03:45:38;;;;;;;1.50;1.40;;;;;;;1.52;nan;-23858.16;5030875;28;20171;-65
2023/12/09 03:48:03;;;;;;;1.20;1.20;;;;;;;1.18;nan;-23848.44;5030816;28;20262;-64
2023/12/09 03:50:29;;;;;;;1.70;1.60;;;;;;;1.20;nan;-23849.03;5031199;28;20174;-63
2023/12/09 03:52:54;;;;;;;2.17;2.07;;;;;;;1.20;nan;-23849.16;5030891;28;20179;-64
2023/12/09 03:55:19;;;;;;;1.43;1.33;;;;;;;1.11;nan;-23846.59;5030819;28;20219;-67
2023/12/09 03:57:45;;;;;;;1.00;1.00;;;;;;;1.36;nan;-23853.59;5030761;28;20253;-65
2023/12/09 04:00:11;;;;;;;1.30;1.30;;;;;;;1.37;nan;-23853.88;5033366;28;20600;-65
2023/12/09 04:02:36;;;;;;;1.50;1.43;;;;;;;1.31;nan;-23852.16;5034565;28;20184;-64
2023/12/09 04:05:03;;;;;;;2.00;1.90;;;;;;;1.16;nan;-23848.03;5033995;28;20182;-64
2023/12/09 04:07:28;;;;;;;4.10;1.97;;;;;;;1.36;nan;-23853.59;5034528;28;20175;-64
2023/12/09 04:09:54;;;;;;;1.20;1.20;;;;;;;1.32;nan;-23852.59;5034397;28;20226;-64
2023/12/09 04:12:19;;;;;;;2.50;2.30;;;;;;;1.24;nan;-23850.31;5034100;28;20645;-65
2023/12/09 04:14:44;;;;;;;1.27;1.23;;;;;;;1.13;nan;-23847.03;5034337;28;20674;-64
2023/12/09 04:17:10;;;;;;;1.97;1.67;;;;;;;1.11;nan;-23846.59;5034268;28;20274;-64
2023/12/09 04:19:35;;;;;;;2.40;1.90;;;;;;;1.27;nan;-23851.16;5034188;28;20179;-65
2023/12/09 04:22:01;;;;;;;1.23;1.23;;;;;;;1.30;nan;-23852.03;5034294;28;20179;-64
2023/12/09 04:24:26;;;;;;;1.67;1.57;;;;;;;1.40;nan;-23854.75;5034237;28;20676;-64
2023/12/09 04:26:51;;;;;;;1.70;1.60;;;;;;;1.27;nan;-23851.16;5033666;28;20171;-64
2023/12/09 04:29:17;;;;;;;1.93;1.83;;;;;;;1.50;nan;-23857.47;5033896;28;20206;-65
2023/12/09 04:31:42;;;;;;;1.60;1.50;;;;;;;1.56;nan;-23859.16;5034464;28;20159;-65
2023/12/09 04:34:08;;;;;;;1.63;1.53;;;;;;;1.31;nan;-23852.31;5034206;28;20349;-65
2023/12/09 04:36:33;;;;;;;1.93;1.83;;;;;;;1.25;nan;-23850.44;5034085;28;20182;-63
2023/12/09 04:38:59;;;;;;;2.07;1.87;;;;;;;1.34;nan;-23853.03;5033915;28;20198;-65
2023/12/09 04:41:24;;;;;;;1.20;1.20;;;;;;;1.57;nan;-23859.59;5033332;28;20241;-65
2023/12/09 04:43:50;;;;;;;1.60;1.50;;;;;;;1.54;nan;-23858.75;5033897;28;20277;-64
2023/12/09 04:46:16;;;;;;;1.30;1.30;;;;;;;1.60;nan;-23860.47;5033481;28;20543;-66
2023/12/09 04:48:43;;;;;;;1.80;1.70;;;;;;;1.65;nan;-23861.88;5033684;28;20225;-63
2023/12/09 04:51:08;;;;;;;1.67;1.57;;;;;;;1.32;nan;-23852.59;5033758;28;20218;-64
2023/12/09 04:53:33;;;;;;;1.47;1.37;;;;;;;1.30;nan;-23851.88;5033737;28;20194;-64
2023/12/09 04:55:59;;;;;;;1.77;1.67;;;;;;;1.35;nan;-23853.31;5033498;28;20175;-66
2023/12/09 04:58:25;;;;;;;1.40;1.30;;;;;;;1.41;nan;-23855.03;5033611;28;20572;-66
2023/12/09 05:00:50;;;;;;;1.30;1.30;;;;;;;1.39;nan;-23854.31;5033503;28;20176;-64
2023/12/09 05:03:16;;;;;;;1.10;1.10;;;;;;;1.06;nan;-23845.03;5033475;28;20186;-64
2023/12/09 05:05:41;;;;;;;1.67;1.60;;;;;;;1.21;nan;-23849.31;5033321;28;20184;-65
2023/12/09 05:08:08;;;;;;;1.77;1.67;;;;;;;1.38;nan;-23854.16;5033498;28;20176;-64
2023/12/09 05:10:33;;;;;;;1.60;1.50;;;;;;;1.02;nan;-23843.88;5032085;28;20258;-63
2023/12/09 05:12:59;;;;;;;1.10;1.10;;;;;;;1.25;nan;-23850.44;5033445;28;20290;-64
2023/12/09 05:15:24;;;;;;;1.60;1.50;;;;;;;1.52;nan;-23858.03;5033476;28;20187;-65
2023/12/09 05:17:49;;;;;;;1.60;1.50;;;;;;;1.32;nan;-23852.44;5033347;28;20197;-64
2023/12/09 05:20:15;;;;;;;2.20;1.60;;;;;;;1.27;nan;-23851.16;5032950;28;20566;-64
2023/12/09 05:22:40;;;;;;;1.77;1.27;;;;;;;1.40;nan;-23854.59;5033195;28;20171;-65
2023/12/09 05:25:06;;;;;;;1.33;1.30;;;;;;;1.47;nan;-23856.75;5032660;28;20256;-64
2023/12/09 05:27:32;;;;;;;1.40;1.30;;;;;;;1.19;nan;-23848.88;5033469;28;20581;-64
2023/12/09 05:29:57;;;;;;;4.03;2.30;;;;;;;1.32;nan;-23852.44;5032948;28;20229;-64
2023/12/09 05:32:23;;;;;;;2.33;2.13;;;;;;;1.40;nan;-23854.75;5033005;28;20654;-64
2023/12/09 05:34:48;;;;;;;1.37;1.33;;;;;;;1.25;nan;-23850.44;5033002;28;20249;-64
2023/12/09 05:37:13;;;;;;;2.20;2.00;;;;;;;1.47;nan;-23856.75;5033003;28;20522;-64
2023/12/09 05:39:39;;;;;;;2.10;2.00;;;;;;;1.37;nan;-23853.75;5032658;28;20180;-64
2023/12/09 05:42:05;;;;;;;1.90;1.80;;;;;;;1.58;nan;-23859.88;5032859;28;20164;-64
2023/12/09 05:44:30;;;;;;;1.80;1.70;;;;;;;1.57;nan;-23859.59;5032812;28;20263;-66
2023/12/09 05:46:55;;;;;;;1.77;1.67;;;;;;;1.34;nan;-23853.03;5033337;28;20635;-66
2023/12/09 05:49:21;;;;;;;2.43;1.87;;;;;;;1.31;nan;-23852.16;5032790;28;20206;-64
2023/12/09 05:51:46;;;;;;;1.47;1.37;;;;;;;1.53;nan;-23858.31;5032613;28;20606;-65
2023/12/09 05:54:12;;;;;;;1.90;1.80;;;;;;;1.33;nan;-23852.75;5032459;28;20218;-65
2023/12/09 05:56:39;;;;;;;1.43;1.33;;;;;;;1.34;nan;-23853.16;5032232;28;20179;-64
2023/12/09 05:59:05;;;;;;;1.57;1.47;;;;;;;1.54;nan;-23858.59;5032513;28;20183;-64
2023/12/09 06:01:30;;;;;;;1.80;1.63;;;;;;;1.42;nan;-23855.31;5032408;28;20550;-65
2023/12/09 06:03:56;;;;;;;1.50;1.40;;;;;;;1.11;nan;-23846.44;5032217;28;20186;-65
2023/12/09 06:06:21;;;;;;;1.57;1.47;;;;;;;1.16;nan;-23847.88;5032704;28;20225;-64
2023/12/09 06:08:46;;;;;;;1.20;1.20;;;;;;;1.30;nan;-23851.88;5031930;28;20286;-64
2023/12/09 06:11:12;;;;;;;1.60;1.50;;;;;;;1.27;nan;-23851.03;5012030;28;20711;-65
2023/12/09 06:13:37;;;;;;;1.67;1.57;;;;;;;1.22;nan;-23849.72;5012503;28;20218;-65
2023/12/09 06:16:03;;;;;;;1.47;1.43;;;;;;;1.06;nan;-23845.03;5012346;28;20258;-64
2023/12/09 06:18:28;;;;;;;1.20;1.20;;;;;;;1.08;nan;-23845.59;5012217;28;20176;-67
2023/12/09 06:20:53;;;;;;;1.63;1.53;;;;;;;1.10;nan;-23846.31;5024395;28;20262;-64
2023/12/09 06:23:19;;;;;;;1.30;1.30;;;;;;;1.18;nan;-23848.44;5028191;28;20188;-65
2023/12/09 06:25:44;;;;;;;1.40;1.40;;;;;;;0.97;nan;-23842.44;5011704;28;20663;-65
2023/12/09 06:28:10;;;;;;;2.50;1.93;;;;;;;1.48;nan;-23856.88;5012123;28;20500;-66
2023/12/09 06:30:35;;;;;;;2.70;2.17;;;;;;;1.41;nan;-23855.03;5024592;28;20598;-66
2023/12/09 06:33:00;;;;;;;1.70;1.60;;;;;;;1.42;nan;-23855.31;5022413;28;20171;-65
2023/12/09 06:35:26;;;;;;;2.37;2.17;;;;;;;1.39;nan;-23854.44;5019953;28;20550;-65
2023/12/09 06:37:54;;;;;;;1.67;1.57;;;;;;;1.49;nan;-23857.16;5020657;28;20175;-65
2023/12/09 06:40:20;;;;;;;1.53;1.43;;;;;;;1.34;nan;-23853.03;5022412;28;20226;-66
2023/12/09 06:42:45;;;;;;;1.60;1.50;;;;;;;1.10;nan;-23846.31;5029894;28;20191;-66
2023/12/09 06:45:11;;;;;;;1.70;1.60;;;;;;;1.42;nan;-23855.31;5031346;28;20289;-64
2023/12/09 06:47:36;;;;;;;1.17;1.17;;;;;;;1.09;nan;-23845.88;5030898;28;20202;-65
2023/12/09 06:50:02;;;;;;;1.50;1.40;;;;;;;1.01;nan;-23843.59;5031306;28;20167;-66
2023/12/09 06:52:27;;;;;;;1.77;1.67;;;;;;;1.30;nan;-23851.88;5031198;28;20164;-66
2023/12/09 06:54:53;;;;;;;2.07;1.37;;;;;;;1.16;nan;-23847.88;5030667;28;20233;-65
2023/12/09 06:57:18;;;;;;;1.60;1.50;;;;;;;1.35;nan;-23853.31;5031197;28;20595;-65
2023/12/09 06:59:44;;;;;;;1.90;1.80;;;;;;;1.43;nan;-23855.59;5030758;28;20179;-64
2023/12/09 07:02:09;;;;;;;1.63;1.53;;;;;;;1.73;nan;-23864.16;5031148;28;20183;-65
2023/12/09 07:04:38;;;;;;;3.67;2.53;;;;;;;1.66;nan;-23862.19;5030886;28;20186;-64
2023/12/09 07:07:03;;;;;;;2.60;2.13;;;;;;;1.66;nan;-23862.03;5030824;28;20627;-65
2023/12/09 07:09:29;;;;;;;1.43;1.33;;;;;;;1.64;nan;-23861.47;5030710;28;20209;-65
2023/12/09 07:11:54;;;;;;;3.00;1.70;;;;;;;1.68;nan;-23862.75;5031085;28;20650;-65
2023/12/09 07:14:20;;;;;;;1.50;1.40;;;;;;;1.74;nan;-23864.31;5030782;28;20199;-64
2023/12/09 07:16:45;;;;;;;1.87;1.50;;;;;;;1.57;nan;-23859.59;5030455;28;20171;-65
2023/12/09 07:19:10;;;;;;;1.70;1.60;;;;;;;1.66;nan;-23862.19;5030543;28;20215;-66
2023/12/09 07:21:36;;;;;;;7.83;2.50;;;;;;;1.97;nan;-23870.88;5030788;28;20554;-64
2023/12/09 07:24:01;;;;;;;1.57;1.47;;;;;;;1.71;nan;-23863.59;5030763;28;20176;-65
2023/12/09 07:26:27;;;;;;;1.93;1.83;;;;;;;2.06;nan;-23873.31;5030697;28;20186;-64
2023/12/09 07:28:52;;;;;;;1.27;1.23;;;;;;;1.83;nan;-23866.75;5030388;28;20168;-64
2023/12/09 07:31:18;;;;;;;2.20;1.50;;;;;;;2.23;nan;-23878.16;5031200;28;20322;-65
2023/12/09 07:33:43;;;;;;;1.67;1.57;;;;;;;2.11;nan;-23874.88;5031823;28;20289;-64
2023/12/09 07:36:09;;;;;;;1.30;1.30;;;;;;;2.37;nan;-23882.16;5034779;28;20621;-64
2023/12/09 07:38:34;;;;;;;2.17;1.80;;;;;;;2.34;nan;-23881.31;5034073;28;20186;-63
2023/12/09 07:41:01;;;;;;;3.43;2.17;;;;;;;2.62;nan;-23889.16;5034479;28;20187;-66
2023/12/09 07:43:26;;;;;;;2.33;2.20;;;;;;;1.30;nan;-23851.88;5033100;28;20513;-64
2023/12/09 07:45:52;;;;;;;1.70;1.60;;;;;;;2.59;nan;-23888.44;5034546;28;20217;-65
2023/12/09 07:48:17;;;;;;;1.90;1.77;;;;;;;2.67;nan;-23890.72;5034669;28;20215;-64
2023/12/09 07:50:42;;;;;;;1.90;1.80;;;;;;;2.74;nan;-23892.59;5034115;28;20178;-64
2023/12/09 07:53:08;;;;;;;2.43;1.83;;;;;;;2.95;nan;-23898.44;5033886;28;20539;-64
2023/12/09 07:55:33;;;;;;;1.60;1.50;;;;;;;3.30;nan;-23908.28;5034238;28;20664;-65
2023/12/09 07:57:59;;;;;;;1.77;1.67;;;;;;;3.41;nan;-23911.56;5034524;28;20183;-64
2023/12/09 08:00:27;;;;;;;2.77;2.57;;;;;;;3.44;nan;-23912.41;5034388;28;20573;-65
2023/12/09 08:02:55;;;;;;;1.80;1.70;;;;;;;3.57;nan;-23915.97;5032881;28;20186;-64
2023/12/09 08:05:23;;;;;;;2.13;1.93;;;;;;;3.35;nan;-23909.69;5033923;28;20175;-65
2023/12/09 08:07:49;;;;;;;1.70;1.60;;;;;;;3.43;nan;-23912.13;5033545;28;20579;-64
2023/12/09 08:10:14;;;;;;;2.60;2.40;;;;;;;3.47;nan;-23913.13;5033932;28;20665;-64
2023/12/09 08:12:40;;;;;;;1.50;1.40;;;;;;;3.24;nan;-23906.72;5033905;28;20205;-65
2023/12/09 08:15:06;;;;;;;2.00;1.90;;;;;;;3.23;nan;-23906.28;5032478;28;20556;-65
2023/12/09 08:17:31;;;;;;;2.50;2.30;;;;;;;3.68;nan;-23918.97;5032345;28;20254;-65
2023/12/09 08:19:57;;;;;;;3.73;1.90;;;;;;;3.56;nan;-23915.81;5031583;28;20209;-65
2023/12/09 08:22:22;;;;;;;6.30;3.70;;;;;;;3.39;nan;-23910.97;5032326;28;20267;-66
2023/12/09 08:24:48;;;;;;;4.00;2.63;;;;;;;3.44;nan;-23912.25;5031726;28;20187;-65
2023/12/09 08:27:13;;;;;;;2.70;2.50;;;;;;;3.29;nan;-23908.00;5031769;28;20187;-65
2023/12/09 08:29:38;;;;;;;2.27;2.07;;;;;;;3.37;nan;-23910.28;5031619;28;20227;-67
2023/12/09 08:32:04;;;;;;;2.47;2.27;;;;;;;3.74;nan;-23920.69;5031770;28;20623;-64
2023/12/09 08:34:30;;;;;;;4.67;2.17;;;;;;;3.63;nan;-23917.69;5032092;28;20203;-65
2023/12/09 08:36:55;;;;;;;2.13;2.03;;;;;;;3.95;nan;-23926.81;5031347;28;20187;-65
2023/12/09 08:39:22;;;;;;;1.67;1.50;;;;;;;4.06;nan;-23929.66;5031962;28;20221;-64
2023/12/09 08:41:47;;;;;;;1.87;1.77;;;;;;;4.03;nan;-23928.94;5032003;28;20183;-64
2023/12/09 08:44:13;;;;;;;2.10;2.00;;;;;;;4.03;nan;-23927.09;5031680;28;20187;-65
2023/12/09 08:46:38;;;;;;;3.20;2.50;;;;;;;4.37;nan;-22674.84;5031821;28;20203;-65
2023/12/09 08:49:04;;;;;;;1.70;1.60;;;;;;;4.43;nan;-21098.19;5031769;28;20194;-65
2023/12/09 08:51:29;;;;;;;1.53;1.43;;;;;;;4.30;nan;-20779.28;5031108;28;20179;-65
2023/12/09 08:53:55;;;;;;;1.37;1.33;;;;;;;4.51;nan;-18572.75;5032251;28;20207;-65
2023/12/09 08:56:20;;;;;;;1.93;1.70;;;;;;;4.26;nan;-20146.97;5029248;28;20210;-63
2023/12/09 08:58:46;;;;;;;1.53;1.43;;;;;;;4.66;nan;-21735.03;5032191;28;20748;-65
2023/12/09 09:01:12;;;;;;;1.50;1.40;;;;;;;4.70;nan;-21104.38;5032181;28;20531;-65
2023/12/09 09:03:37;;;;;;;2.10;2.00;;;;;;;4.63;nan;-19839.25;5032410;28;20258;-65
2023/12/09 09:06:03;;;;;;;1.37;1.30;;;;;;;4.78;nan;-21106.38;5033151;28;20194;-65
2023/12/09 09:08:29;;;;;;;1.60;1.50;;;;;;;4.66;nan;-19839.81;5032167;28;20638;-66
2023/12/09 09:10:55;;;;;;;2.97;2.07;;;;;;;4.61;nan;-18890.84;5032431;28;20201;-64
2023/12/09 09:13:21;;;;;;;1.60;1.50;;;;;;;4.78;nan;-17945.69;5032861;28;20203;-65
2023/12/09 09:15:46;;;;;;;3.63;1.80;;;;;;;4.60;nan;-21417.78;5031382;28;20179;-66
2023/12/09 09:18:11;;;;;;;2.43;2.27;;;;;;;4.81;nan;-21106.97;5032416;28;20175;-66
2023/12/09 09:20:37;;;;;;;2.23;2.00;;;;;;;5.08;nan;-19848.91;5031180;28;20187;-65
2023/12/09 09:23:02;;;;;;;1.70;1.60;;;;;;;5.02;nan;-22059.78;5031795;28;20707;-65
2023/12/09 09:25:28;;;;;;;1.90;1.80;;;;;;;4.99;nan;-18265.88;5031343;28;20619;-64
2023/12/09 09:27:53;;;;;;;1.57;1.47;;;;;;;5.20;nan;-17320.47;5032760;28;20286;-64
2023/12/09 09:30:25;;;;;;;2.07;1.97;;;;;;;3.14;nan;-16969.28;5031729;28;20698;-64
2023/12/09 09:32:51;;;;;;;1.77;1.67;;;;;;;5.62;nan;-14793.16;5030591;28;20210;-64
2023/12/09 09:35:16;;;;;;;1.87;1.57;;;;;;;5.31;nan;-14472.28;5031600;28;20199;-64
2023/12/09 09:37:42;;;;;;;1.20;1.20;;;;;;;5.54;nan;-17009.66;5031659;28;20618;-64
2023/12/09 09:40:07;;;;;;;2.33;2.13;;;;;;;5.81;nan;-17647.75;5031276;28;20666;-65
2023/12/09 09:42:34;;;;;;;1.50;1.40;;;;;;;5.85;nan;-15113.13;5031393;28;20187;-64
2023/12/09 09:45:17;;;;;;;1.77;1.67;;;;;;;5.89;nan;-12258.88;5030677;28;20206;-65
2023/12/09 09:47:42;;;;;;;1.67;1.53;;;;;;;5.75;nan;-13526.53;5027157;28;20187;-65
2023/12/09 09:50:10;;;;;;;1.50;1.40;;;;;;;5.71;nan;-17012.63;5030680;28;20186;-64
2023/12/09 09:52:37;;;;;;;2.10;1.97;;;;;;;5.98;nan;-15432.03;5030782;28;20187;-65
2023/12/09 09:55:06;;;;;;;2.60;2.40;;;;;;;6.21;nan;-5905.41;5030468;28;20577;-64
2023/12/09 09:57:32;;;;;;;2.13;2.03;;;;;;;6.02;nan;-12894.84;5029894;28;20249;-65
2023/12/09 09:59:59;;;;;;;4.40;2.03;;;;;;;6.18;nan;-10991.31;5030091;28;20614;-66
2023/12/09 10:02:26;;;;;;;2.67;1.40;;;;;;;6.41;nan;-8450.00;5028348;28;20182;-64
2023/12/09 10:04:52;;;;;;;2.20;2.00;;;;;;;5.51;nan;-7177.19;5031482;28;20629;-64
2023/12/09 10:07:19;;;;;;;2.00;1.90;;;;;;;6.37;nan;-2084.41;5031059;28;20190;-64
2023/12/09 10:09:44;;;;;;;1.77;1.67;;;;;;;6.43;nan;-4631.91;5030842;28;20179;-66
2023/12/09 10:12:09;;;;;;;1.10;1.10;;;;;;;6.45;nan;-3676.53;5030236;28;20205;-67
2023/12/09 10:14:35;;;;;;;1.60;1.50;;;;;;;6.58;nan;-9404.56;5031272;28;20223;-65
2023/12/09 10:17:01;;;;;;;1.77;1.57;;;;;;;6.59;nan;-11629.75;5030140;28;20206;-65
2023/12/09 10:19:26;;;;;;;1.40;1.30;;;;;;;6.73;nan;-3356.50;5031332;28;20622;-66
2023/12/09 10:21:52;;;;;;;1.20;1.20;;;;;;;6.83;nan;2385.69;5029931;28;20183;-65
2023/12/09 10:24:17;;;;;;;1.40;1.30;;;;;;;6.77;nan;3661.84;5029837;28;20565;-65
2023/12/09 10:26:43;;;;;;;1.57;1.47;;;;;;;7.02;nan;3666.25;5031540;28;20537;-65
2023/12/09 10:29:08;;;;;;;1.80;1.70;;;;;;;7.18;nan;8465.75;5029807;28;20187;-64
2023/12/09 10:31:35;;;;;;;1.60;1.50;;;;;;;6.95;nan;10380.09;5030116;28;20276;-64
2023/12/09 10:34:04;;;;;;;1.63;1.53;;;;;;;6.96;nan;8460.34;5030132;28;20587;-64
2023/12/09 10:36:30;;;;;;;1.93;1.83;;;;;;;7.11;nan;8464.13;5030653;28;20215;-66
2023/12/09 10:38:57;;;;;;;1.97;1.80;;;;;;;6.89;nan;9738.47;5029907;28;20203;-64
2023/12/09 10:41:25;;;;;;;2.23;2.07;;;;;;;7.01;nan;7182.19;5030342;28;20206;-65
2023/12/09 10:43:53;;;;;;;1.40;1.30;;;;;;;7.05;nan;3027.81;5029644;28;20257;-64
2023/12/09 10:46:19;;;;;;;2.10;1.70;;;;;;;7.33;nan;7829.38;5014725;28;20203;-65
2023/12/09 10:48:44;;;;;;;1.70;1.60;;;;;;;7.25;nan;11990.13;5029927;28;20267;-64
2023/12/09 10:51:10;;;;;;;2.20;1.90;;;;;;;7.04;nan;11023.00;5029527;28;20190;-65
2023/12/09 10:53:35;;;;;;;2.10;1.63;;;;;;;7.28;nan;13273.00;5029972;28;20213;-65
2023/12/09 10:56:02;;;;;;;1.73;1.63;;;;;;;7.32;nan;10070.19;5029493;28;20194;-65
2023/12/09 10:58:27;;;;;;;2.20;1.53;;;;;;;7.31;nan;11671.72;5027022;28;20266;-67
2023/12/09 11:00:56;;;;;;;1.70;1.60;;;;;;;7.39;nan;18410.53;5030197;28;20197;-65
2023/12/09 11:03:24;;;;;;;2.33;1.73;;;;;;;7.39;nan;14880.25;5013679;28;20195;-65
2023/12/09 11:05:52;;;;;;;1.50;1.40;;;;;;;7.72;nan;12646.09;5031154;28;20185;-66
2023/12/09 11:08:19;;;;;;;2.50;1.97;;;;;;;7.50;nan;16809.69;5028681;28;20534;-65
2023/12/09 11:10:44;;;;;;;1.50;1.33;;;;;;;7.79;nan;15857.50;5030567;28;20689;-66
2023/12/09 11:13:11;;;;;;;1.33;1.30;;;;;;;7.55;nan;20987.50;5029421;28;20228;-65
2023/12/09 11:15:36;;;;;;;1.47;1.37;;;;;;;7.81;nan;25182.63;5030399;28;20554;-66
2023/12/09 11:18:10;;;;;;;1.53;1.43;;;;;;;7.68;nan;28396.41;5029893;28;20191;-66
2023/12/09 11:20:39;;;;;;;1.60;1.50;;;;;;;7.90;nan;26475.50;5030056;28;20175;-65
2023/12/09 11:23:09;;;;;;;6.73;2.10;;;;;;;7.77;nan;27757.16;5028883;28;20181;-66
2023/12/09 11:25:38;;;;;;;2.03;1.73;;;;;;;7.81;nan;26792.63;5029354;28;20167;-66
2023/12/09 11:28:03;;;;;;;1.67;1.57;;;;;;;7.95;nan;25190.03;5028995;28;20562;-65
2023/12/09 11:30:37;;;;;;;2.38;1.92;;;;;;;7.91;nan;24543.91;5030578;28;20234;-64
2023/12/09 11:33:04;;;;;;;1.50;1.40;;;;;;;8.04;nan;22940.34;5029914;28;20589;-64
2023/12/09 11:35:32;;;;;;;1.80;1.70;;;;;;;7.66;nan;26462.53;5030452;28;20180;-66
2023/12/09 11:37:58;;;;;;;1.60;1.50;;;;;;;7.87;nan;25829.88;5030527;28;20643;-63
2023/12/09 11:40:27;;;;;;;1.70;1.60;;;;;;;8.05;nan;32289.00;5029790;28;20182;-66
2023/12/09 11:42:53;;;;;;;2.53;2.33;;;;;;;8.01;nan;31963.63;5029489;28;20182;-64
2023/12/09 11:45:19;;;;;;;2.03;1.67;;;;;;;8.02;nan;27771.22;5028879;28;20195;-64